sensor_id;sensor_type;location;lat;lon;timestamp;temperature;humidity
16174;DHT22;14031;50.158;8.626;2024-01-06T00:02:01;5.30;99.90
16174;DHT22;14031;50.158;8.626;2024-01-06T00:04:28;5.30;99.90
16174;DHT22;14031;50.158;8.626;2024-01-06T00:06:55;5.20;99.90
16174;DHT22;14031;50.158;8.626;2024-01-06T00:09:21;5.10;99.90
16174;DHT22;14031;50.158;8.626;2024-01-06T00:11:48;5.00;99.90
16174;DHT22;14031;50.158;8.626;2024-01-06T00:14:16;5.00;99.90
16174;DHT22;14031;50.158;8.626;2024-01-06T00:16:43;4.90;99.90
16174;DHT22;14031;50.158;8.626;2024-01-06T00:19:10;4.80;99.90
16174;DHT22;14031;50.158;8.626;2024-01-06T00:21:37;4.80;99.90
16174;DHT22;14031;50.158;8.626;2024-01-06T00:24:03;4.80;99.90
16174;DHT22;14031;50.158;8.626;2024-01-06T00:26:30;4.70;99.90
16174;DHT22;14031;50.158;8.626;2024-01-06T00:28:57;4.80;99.90
16174;DHT22;14031;50.158;8.626;2024-01-06T00:31:25;4.60;99.90
16174;DHT22;14031;50.158;8.626;2024-01-06T00:33:51;4.60;99.90
16174;DHT22;14031;50.158;8.626;2024-01-06T00:36:18;4.50;99.90
16174;DHT22;14031;50.158;8.626;2024-01-06T00:38:45;4.50;99.90
16174;DHT22;14031;50.158;8.626;2024-01-06T00:41:12;4.50;99.90
16174;DHT22;14031;50.158;8.626;2024-01-06T00:43:39;4.40;99.90
16174;DHT22;14031;50.158;8.626;2024-01-06T00:46:05;4.40;99.90
16174;DHT22;14031;50.158;8.626;2024-01-06T00:48:34;4.30;99.90
16174;DHT22;14031;50.158;8.626;2024-01-06T00:51:01;4.30;99.90
16174;DHT22;14031;50.158;8.626;2024-01-06T00:53:28;4.20;99.90
16174;DHT22;14031;50.158;8.626;2024-01-06T00:55:55;4.20;99.90
16174;DHT22;14031;50.158;8.626;2024-01-06T00:58:21;4.20;99.90
16174;DHT22;14031;50.158;8.626;2024-01-06T01:00:48;4.20;99.90
16174;DHT22;14031;50.158;8.626;2024-01-06T01:03:15;4.30;99.90
16174;DHT22;14031;50.158;8.626;2024-01-06T01:05:43;4.30;99.90
16174;DHT22;14031;50.158;8.626;2024-01-06T01:08:10;4.30;99.90
16174;DHT22;14031;50.158;8.626;2024-01-06T01:10:37;4.40;99.90
16174;DHT22;14031;50.158;8.626;2024-01-06T01:13:04;4.40;99.90
16174;DHT22;14031;50.158;8.626;2024-01-06T01:15:30;4.30;99.90
16174;DHT22;14031;50.158;8.626;2024-01-06T01:17:57;4.40;99.90
16174;DHT22;14031;50.158;8.626;2024-01-06T01:20:24;4.40;99.90
16174;DHT22;14031;50.158;8.626;2024-01-06T01:22:52;4.50;99.90
16174;DHT22;14031;50.158;8.626;2024-01-06T01:25:19;4.60;99.90
16174;DHT22;14031;50.158;8.626;2024-01-06T01:27:45;4.70;99.90
16174;DHT22;14031;50.158;8.626;2024-01-06T01:30:12;4.80;99.90
16174;DHT22;14031;50.158;8.626;2024-01-06T01:32:39;4.90;99.90
16174;DHT22;14031;50.158;8.626;2024-01-06T01:35:07;5.00;99.90
16174;DHT22;14031;50.158;8.626;2024-01-06T01:37:33;5.20;99.90
16174;DHT22;14031;50.158;8.626;2024-01-06T01:40:02;5.30;99.90
16174;DHT22;14031;50.158;8.626;2024-01-06T01:42:29;5.30;99.90
16174;DHT22;14031;50.158;8.626;2024-01-06T01:44:56;5.40;99.90
16174;DHT22;14031;50.158;8.626;2024-01-06T01:47:22;5.40;99.90
16174;DHT22;14031;50.158;8.626;2024-01-06T01:49:50;5.50;99.90
16174;DHT22;14031;50.158;8.626;2024-01-06T01:52:16;5.50;99.90
16174;DHT22;14031;50.158;8.626;2024-01-06T01:54:45;5.60;99.90
16174;DHT22;14031;50.158;8.626;2024-01-06T01:57:14;5.60;99.90
16174;DHT22;14031;50.158;8.626;2024-01-06T01:59:41;5.60;99.90
16174;DHT22;14031;50.158;8.626;2024-01-06T02:02:09;5.60;99.90
16174;DHT22;14031;50.158;8.626;2024-01-06T02:04:36;5.70;99.90
16174;DHT22;14031;50.158;8.626;2024-01-06T02:07:03;5.70;99.90
16174;DHT22;14031;50.158;8.626;2024-01-06T02:09:30;5.70;99.90
16174;DHT22;14031;50.158;8.626;2024-01-06T02:11:57;5.70;99.90
16174;DHT22;14031;50.158;8.626;2024-01-06T02:14:25;5.80;99.90
16174;DHT22;14031;50.158;8.626;2024-01-06T02:16:52;5.80;99.90
16174;DHT22;14031;50.158;8.626;2024-01-06T02:19:19;5.80;99.90
16174;DHT22;14031;50.158;8.626;2024-01-06T02:21:49;5.90;99.90
16174;DHT22;14031;50.158;8.626;2024-01-06T02:24:16;5.80;99.90
16174;DHT22;14031;50.158;8.626;2024-01-06T02:26:43;5.90;99.90
16174;DHT22;14031;50.158;8.626;2024-01-06T02:29:10;5.90;99.90
16174;DHT22;14031;50.158;8.626;2024-01-06T02:31:36;5.90;99.90
16174;DHT22;14031;50.158;8.626;2024-01-06T02:34:03;6.00;99.90
16174;DHT22;14031;50.158;8.626;2024-01-06T02:36:30;6.00;99.90
16174;DHT22;14031;50.158;8.626;2024-01-06T02:38:58;6.00;99.90
16174;DHT22;14031;50.158;8.626;2024-01-06T02:41:24;6.10;99.90
16174;DHT22;14031;50.158;8.626;2024-01-06T02:43:54;6.10;99.90
16174;DHT22;14031;50.158;8.626;2024-01-06T02:46:20;6.00;99.90
16174;DHT22;14031;50.158;8.626;2024-01-06T02:48:47;6.00;99.90
16174;DHT22;14031;50.158;8.626;2024-01-06T02:51:14;6.00;99.90
16174;DHT22;14031;50.158;8.626;2024-01-06T02:53:41;6.10;99.90
16174;DHT22;14031;50.158;8.626;2024-01-06T02:56:11;6.10;99.90
16174;DHT22;14031;50.158;8.626;2024-01-06T02:58:38;6.10;99.90
16174;DHT22;14031;50.158;8.626;2024-01-06T03:01:04;6.10;99.90
16174;DHT22;14031;50.158;8.626;2024-01-06T03:03:31;6.10;99.90
16174;DHT22;14031;50.158;8.626;2024-01-06T03:05:58;6.20;99.90
16174;DHT22;14031;50.158;8.626;2024-01-06T03:08:25;6.10;99.90
16174;DHT22;14031;50.158;8.626;2024-01-06T03:10:52;6.10;99.90
16174;DHT22;14031;50.158;8.626;2024-01-06T03:13:20;6.20;99.90
16174;DHT22;14031;50.158;8.626;2024-01-06T03:15:47;6.20;99.90
16174;DHT22;14031;50.158;8.626;2024-01-06T03:18:14;6.20;99.90
16174;DHT22;14031;50.158;8.626;2024-01-06T03:20:41;6.20;99.90
16174;DHT22;14031;50.158;8.626;2024-01-06T03:23:07;6.20;99.90
16174;DHT22;14031;50.158;8.626;2024-01-06T03:25:34;6.20;99.90
16174;DHT22;14031;50.158;8.626;2024-01-06T03:28:01;6.10;99.90
16174;DHT22;14031;50.158;8.626;2024-01-06T03:30:29;6.20;99.90
16174;DHT22;14031;50.158;8.626;2024-01-06T03:32:56;6.20;99.90
16174;DHT22;14031;50.158;8.626;2024-01-06T03:35:22;6.20;99.90
16174;DHT22;14031;50.158;8.626;2024-01-06T03:37:49;6.20;99.90
16174;DHT22;14031;50.158;8.626;2024-01-06T03:40:16;6.20;99.90
16174;DHT22;14031;50.158;8.626;2024-01-06T03:42:43;6.40;99.90
16174;DHT22;14031;50.158;8.626;2024-01-06T03:45:09;6.30;99.90
16174;DHT22;14031;50.158;8.626;2024-01-06T03:47:37;6.30;99.90
16174;DHT22;14031;50.158;8.626;2024-01-06T03:50:05;6.30;99.90
16174;DHT22;14031;50.158;8.626;2024-01-06T03:52:31;6.30;99.90
16174;DHT22;14031;50.158;8.626;2024-01-06T03:54:58;6.30;99.90
16174;DHT22;14031;50.158;8.626;2024-01-06T03:57:25;6.50;99.90
16174;DHT22;14031;50.158;8.626;2024-01-06T03:59:52;6.30;99.90
16174;DHT22;14031;50.158;8.626;2024-01-06T04:02:18;6.30;99.90
16174;DHT22;14031;50.158;8.626;2024-01-06T04:04:47;6.30;99.90
16174;DHT22;14031;50.158;8.626;2024-01-06T04:07:13;6.30;99.90
16174;DHT22;14031;50.158;8.626;2024-01-06T04:09:42;6.30;99.90
16174;DHT22;14031;50.158;8.626;2024-01-06T04:12:09;6.30;99.90
16174;DHT22;14031;50.158;8.626;2024-01-06T04:14:35;6.40;99.90
16174;DHT22;14031;50.158;8.626;2024-01-06T04:17:02;6.40;99.90
16174;DHT22;14031;50.158;8.626;2024-01-06T04:19:29;6.40;99.90
16174;DHT22;14031;50.158;8.626;2024-01-06T04:21:57;6.30;99.90
16174;DHT22;14031;50.158;8.626;2024-01-06T04:24:24;6.30;99.90
16174;DHT22;14031;50.158;8.626;2024-01-06T04:26:50;6.40;99.90
16174;DHT22;14031;50.158;8.626;2024-01-06T04:29:17;6.40;99.90
16174;DHT22;14031;50.158;8.626;2024-01-06T04:31:44;6.30;99.90
16174;DHT22;14031;50.158;8.626;2024-01-06T04:34:11;6.40;99.90
16174;DHT22;14031;50.158;8.626;2024-01-06T04:36:37;6.40;99.90
16174;DHT22;14031;50.158;8.626;2024-01-06T04:39:06;6.40;99.90
16174;DHT22;14031;50.158;8.626;2024-01-06T04:41:33;6.40;99.90
16174;DHT22;14031;50.158;8.626;2024-01-06T04:44:00;6.50;99.90
16174;DHT22;14031;50.158;8.626;2024-01-06T04:46:26;6.50;99.90
16174;DHT22;14031;50.158;8.626;2024-01-06T04:48:53;6.50;99.90
16174;DHT22;14031;50.158;8.626;2024-01-06T04:51:20;6.50;99.90
16174;DHT22;14031;50.158;8.626;2024-01-06T04:53:47;6.50;99.90
16174;DHT22;14031;50.158;8.626;2024-01-06T04:56:15;6.50;99.90
16174;DHT22;14031;50.158;8.626;2024-01-06T04:58:41;6.50;99.90
16174;DHT22;14031;50.158;8.626;2024-01-06T05:01:08;6.40;99.90
16174;DHT22;14031;50.158;8.626;2024-01-06T05:03:35;6.30;99.90
16174;DHT22;14031;50.158;8.626;2024-01-06T05:06:02;6.30;99.90
16174;DHT22;14031;50.158;8.626;2024-01-06T05:08:29;6.20;99.90
16174;DHT22;14031;50.158;8.626;2024-01-06T05:10:56;6.20;99.90
16174;DHT22;14031;50.158;8.626;2024-01-06T05:13:25;6.20;99.90
16174;DHT22;14031;50.158;8.626;2024-01-06T05:15:51;6.20;99.90
16174;DHT22;14031;50.158;8.626;2024-01-06T05:18:18;6.20;99.90
16174;DHT22;14031;50.158;8.626;2024-01-06T05:20:45;6.20;99.90
16174;DHT22;14031;50.158;8.626;2024-01-06T05:23:12;6.20;99.90
16174;DHT22;14031;50.158;8.626;2024-01-06T05:25:38;6.20;99.90
16174;DHT22;14031;50.158;8.626;2024-01-06T05:28:05;6.20;99.90
16174;DHT22;14031;50.158;8.626;2024-01-06T05:30:33;6.30;99.90
16174;DHT22;14031;50.158;8.626;2024-01-06T05:33:01;6.30;99.90
16174;DHT22;14031;50.158;8.626;2024-01-06T05:35:28;6.30;99.90
16174;DHT22;14031;50.158;8.626;2024-01-06T05:37:55;6.30;99.90
16174;DHT22;14031;50.158;8.626;2024-01-06T05:40:22;6.30;99.90
16174;DHT22;14031;50.158;8.626;2024-01-06T05:42:48;6.30;99.90
16174;DHT22;14031;50.158;8.626;2024-01-06T05:45:17;6.40;99.90
16174;DHT22;14031;50.158;8.626;2024-01-06T05:47:45;6.30;99.90
16174;DHT22;14031;50.158;8.626;2024-01-06T05:50:15;6.30;99.90
16174;DHT22;14031;50.158;8.626;2024-01-06T05:52:42;6.30;99.90
16174;DHT22;14031;50.158;8.626;2024-01-06T05:55:09;6.30;99.90
16174;DHT22;14031;50.158;8.626;2024-01-06T05:57:36;6.30;99.90
16174;DHT22;14031;50.158;8.626;2024-01-06T06:00:03;6.30;99.90
16174;DHT22;14031;50.158;8.626;2024-01-06T06:02:30;6.30;99.90
16174;DHT22;14031;50.158;8.626;2024-01-06T06:04:59;6.20;99.90
16174;DHT22;14031;50.158;8.626;2024-01-06T06:07:26;6.30;99.90
16174;DHT22;14031;50.158;8.626;2024-01-06T06:09:53;6.30;99.90
16174;DHT22;14031;50.158;8.626;2024-01-06T06:12:20;6.30;99.90
16174;DHT22;14031;50.158;8.626;2024-01-06T06:14:47;6.30;99.90
16174;DHT22;14031;50.158;8.626;2024-01-06T06:17:13;6.30;99.90
16174;DHT22;14031;50.158;8.626;2024-01-06T06:19:40;6.30;99.90
16174;DHT22;14031;50.158;8.626;2024-01-06T06:22:08;6.30;99.90
16174;DHT22;14031;50.158;8.626;2024-01-06T06:24:35;6.30;99.90
16174;DHT22;14031;50.158;8.626;2024-01-06T06:27:01;6.30;99.90
16174;DHT22;14031;50.158;8.626;2024-01-06T06:29:29;6.30;99.90
16174;DHT22;14031;50.158;8.626;2024-01-06T06:31:55;6.30;99.90
16174;DHT22;14031;50.158;8.626;2024-01-06T06:34:22;6.30;99.90
16174;DHT22;14031;50.158;8.626;2024-01-06T06:36:49;6.30;99.90
16174;DHT22;14031;50.158;8.626;2024-01-06T06:39:17;6.30;99.90
16174;DHT22;14031;50.158;8.626;2024-01-06T06:41:44;6.20;99.90
16174;DHT22;14031;50.158;8.626;2024-01-06T06:44:11;6.30;99.90
16174;DHT22;14031;50.158;8.626;2024-01-06T06:46:38;6.30;99.90
16174;DHT22;14031;50.158;8.626;2024-01-06T06:49:04;6.30;99.90
16174;DHT22;14031;50.158;8.626;2024-01-06T06:51:31;6.30;99.90
16174;DHT22;14031;50.158;8.626;2024-01-06T06:53:58;6.30;99.90
16174;DHT22;14031;50.158;8.626;2024-01-06T06:56:26;6.30;99.90
16174;DHT22;14031;50.158;8.626;2024-01-06T06:58:53;6.30;99.90
16174;DHT22;14031;50.158;8.626;2024-01-06T07:01:20;6.30;99.90
16174;DHT22;14031;50.158;8.626;2024-01-06T07:03:46;6.40;99.90
16174;DHT22;14031;50.158;8.626;2024-01-06T07:06:13;6.40;99.90
16174;DHT22;14031;50.158;8.626;2024-01-06T07:08:41;6.40;99.90
16174;DHT22;14031;50.158;8.626;2024-01-06T07:11:08;6.40;99.90
16174;DHT22;14031;50.158;8.626;2024-01-06T07:13:38;6.40;99.90
16174;DHT22;14031;50.158;8.626;2024-01-06T07:16:05;6.40;99.90
16174;DHT22;14031;50.158;8.626;2024-01-06T07:18:32;6.40;99.90
16174;DHT22;14031;50.158;8.626;2024-01-06T07:20:59;6.30;99.90
16174;DHT22;14031;50.158;8.626;2024-01-06T07:23:26;6.30;99.90
16174;DHT22;14031;50.158;8.626;2024-01-06T07:25:52;6.40;99.90
16174;DHT22;14031;50.158;8.626;2024-01-06T07:28:21;6.40;99.90
16174;DHT22;14031;50.158;8.626;2024-01-06T07:30:49;6.40;99.90
16174;DHT22;14031;50.158;8.626;2024-01-06T07:33:16;6.30;99.90
16174;DHT22;14031;50.158;8.626;2024-01-06T07:35:43;6.40;99.90
16174;DHT22;14031;50.158;8.626;2024-01-06T07:38:11;6.40;99.90
16174;DHT22;14031;50.158;8.626;2024-01-06T07:40:38;6.40;99.90
16174;DHT22;14031;50.158;8.626;2024-01-06T07:43:05;6.40;99.90
16174;DHT22;14031;50.158;8.626;2024-01-06T07:45:32;6.40;99.90
16174;DHT22;14031;50.158;8.626;2024-01-06T07:48:00;6.40;99.90
16174;DHT22;14031;50.158;8.626;2024-01-06T07:50:27;6.50;99.90
16174;DHT22;14031;50.158;8.626;2024-01-06T07:52:54;6.40;99.90
16174;DHT22;14031;50.158;8.626;2024-01-06T07:55:21;6.40;99.90
16174;DHT22;14031;50.158;8.626;2024-01-06T07:57:48;6.50;99.90
16174;DHT22;14031;50.158;8.626;2024-01-06T08:00:15;6.50;99.90
16174;DHT22;14031;50.158;8.626;2024-01-06T08:02:42;6.50;99.90
16174;DHT22;14031;50.158;8.626;2024-01-06T08:05:10;6.60;99.90
16174;DHT22;14031;50.158;8.626;2024-01-06T08:07:37;6.60;99.90
16174;DHT22;14031;50.158;8.626;2024-01-06T08:10:04;6.60;99.90
16174;DHT22;14031;50.158;8.626;2024-01-06T08:12:32;6.50;99.90
16174;DHT22;14031;50.158;8.626;2024-01-06T08:15:00;6.60;99.90
16174;DHT22;14031;50.158;8.626;2024-01-06T08:17:26;6.60;99.90
16174;DHT22;14031;50.158;8.626;2024-01-06T08:19:53;6.60;99.90
16174;DHT22;14031;50.158;8.626;2024-01-06T08:22:21;6.70;99.90
16174;DHT22;14031;50.158;8.626;2024-01-06T08:24:48;6.70;99.90
16174;DHT22;14031;50.158;8.626;2024-01-06T08:27:15;6.70;99.90
16174;DHT22;14031;50.158;8.626;2024-01-06T08:29:41;6.70;99.90
16174;DHT22;14031;50.158;8.626;2024-01-06T08:32:08;6.70;99.90
16174;DHT22;14031;50.158;8.626;2024-01-06T08:34:35;6.70;99.90
16174;DHT22;14031;50.158;8.626;2024-01-06T08:37:02;6.80;99.90
16174;DHT22;14031;50.158;8.626;2024-01-06T08:39:31;6.80;99.90
16174;DHT22;14031;50.158;8.626;2024-01-06T08:41:57;6.80;99.90
16174;DHT22;14031;50.158;8.626;2024-01-06T08:44:24;6.90;99.90
16174;DHT22;14031;50.158;8.626;2024-01-06T08:46:51;6.90;99.90
16174;DHT22;14031;50.158;8.626;2024-01-06T08:49:18;6.90;99.90
16174;DHT22;14031;50.158;8.626;2024-01-06T08:51:44;7.00;99.90
16174;DHT22;14031;50.158;8.626;2024-01-06T08:54:11;7.10;99.90
16174;DHT22;14031;50.158;8.626;2024-01-06T08:56:40;7.10;99.90
16174;DHT22;14031;50.158;8.626;2024-01-06T08:59:06;7.20;99.90
16174;DHT22;14031;50.158;8.626;2024-01-06T09:01:33;7.10;99.90
16174;DHT22;14031;50.158;8.626;2024-01-06T09:04:01;7.20;99.90
16174;DHT22;14031;50.158;8.626;2024-01-06T09:06:28;7.30;99.90
16174;DHT22;14031;50.158;8.626;2024-01-06T09:08:55;7.20;99.90
16174;DHT22;14031;50.158;8.626;2024-01-06T09:11:21;7.20;99.90
16174;DHT22;14031;50.158;8.626;2024-01-06T09:13:49;7.30;99.90
16174;DHT22;14031;50.158;8.626;2024-01-06T09:16:18;7.50;99.90
16174;DHT22;14031;50.158;8.626;2024-01-06T09:18:45;7.50;99.90
16174;DHT22;14031;50.158;8.626;2024-01-06T09:21:11;7.50;99.90
16174;DHT22;14031;50.158;8.626;2024-01-06T09:23:38;7.50;99.90
16174;DHT22;14031;50.158;8.626;2024-01-06T09:26:05;7.60;99.90
16174;DHT22;14031;50.158;8.626;2024-01-06T09:28:32;7.60;99.90
16174;DHT22;14031;50.158;8.626;2024-01-06T09:31:00;7.60;99.90
16174;DHT22;14031;50.158;8.626;2024-01-06T09:33:27;7.60;99.90
16174;DHT22;14031;50.158;8.626;2024-01-06T09:35:54;7.70;99.90
16174;DHT22;14031;50.158;8.626;2024-01-06T09:38:20;7.70;99.90
16174;DHT22;14031;50.158;8.626;2024-01-06T09:40:48;7.70;99.90
16174;DHT22;14031;50.158;8.626;2024-01-06T09:43:15;7.70;99.90
16174;DHT22;14031;50.158;8.626;2024-01-06T09:45:42;7.70;99.90
16174;DHT22;14031;50.158;8.626;2024-01-06T09:48:12;7.90;99.90
16174;DHT22;14031;50.158;8.626;2024-01-06T09:50:41;7.70;99.90
16174;DHT22;14031;50.158;8.626;2024-01-06T09:53:10;7.70;99.90
16174;DHT22;14031;50.158;8.626;2024-01-06T09:55:37;7.60;99.90
16174;DHT22;14031;50.158;8.626;2024-01-06T09:58:05;7.60;99.90
16174;DHT22;14031;50.158;8.626;2024-01-06T10:00:32;7.70;99.90
16174;DHT22;14031;50.158;8.626;2024-01-06T10:02:59;7.60;99.90
16174;DHT22;14031;50.158;8.626;2024-01-06T10:05:27;7.70;99.90
16174;DHT22;14031;50.158;8.626;2024-01-06T10:07:54;7.70;99.90
16174;DHT22;14031;50.158;8.626;2024-01-06T10:10:22;7.70;99.90
16174;DHT22;14031;50.158;8.626;2024-01-06T10:12:53;7.70;99.90
16174;DHT22;14031;50.158;8.626;2024-01-06T10:15:20;7.80;99.90
16174;DHT22;14031;50.158;8.626;2024-01-06T10:17:47;7.90;99.90
16174;DHT22;14031;50.158;8.626;2024-01-06T10:20:15;8.10;99.90
16174;DHT22;14031;50.158;8.626;2024-01-06T10:22:45;8.00;99.90
16174;DHT22;14031;50.158;8.626;2024-01-06T10:25:12;8.10;99.90
16174;DHT22;14031;50.158;8.626;2024-01-06T10:27:41;8.10;99.90
16174;DHT22;14031;50.158;8.626;2024-01-06T10:30:09;8.20;99.90
16174;DHT22;14031;50.158;8.626;2024-01-06T10:32:36;8.30;99.90
16174;DHT22;14031;50.158;8.626;2024-01-06T10:35:04;8.30;99.90
16174;DHT22;14031;50.158;8.626;2024-01-06T10:37:32;8.30;99.90
16174;DHT22;14031;50.158;8.626;2024-01-06T10:40:08;8.20;99.90
16174;DHT22;14031;50.158;8.626;2024-01-06T10:42:36;8.30;99.90
16174;DHT22;14031;50.158;8.626;2024-01-06T10:45:06;8.30;99.90
16174;DHT22;14031;50.158;8.626;2024-01-06T10:47:34;8.20;99.90
16174;DHT22;14031;50.158;8.626;2024-01-06T10:50:02;8.40;99.90
16174;DHT22;14031;50.158;8.626;2024-01-06T10:52:29;8.40;99.90
16174;DHT22;14031;50.158;8.626;2024-01-06T10:54:57;8.20;99.90
16174;DHT22;14031;50.158;8.626;2024-01-06T10:57:26;8.30;99.90
16174;DHT22;14031;50.158;8.626;2024-01-06T10:59:53;8.30;99.90
16174;DHT22;14031;50.158;8.626;2024-01-06T11:02:21;8.40;99.90
16174;DHT22;14031;50.158;8.626;2024-01-06T11:04:49;8.50;99.90
16174;DHT22;14031;50.158;8.626;2024-01-06T11:07:18;8.50;99.90
16174;DHT22;14031;50.158;8.626;2024-01-06T11:09:55;8.70;99.90
16174;DHT22;14031;50.158;8.626;2024-01-06T11:12:23;8.80;99.90
16174;DHT22;14031;50.158;8.626;2024-01-06T11:14:53;8.90;99.90
16174;DHT22;14031;50.158;8.626;2024-01-06T11:17:49;9.00;99.90
16174;DHT22;14031;50.158;8.626;2024-01-06T11:20:18;9.10;99.90
16174;DHT22;14031;50.158;8.626;2024-01-06T11:22:45;9.20;99.90
16174;DHT22;14031;50.158;8.626;2024-01-06T11:25:14;9.30;99.90
16174;DHT22;14031;50.158;8.626;2024-01-06T11:27:43;9.40;99.90
16174;DHT22;14031;50.158;8.626;2024-01-06T11:30:20;9.50;99.90
16174;DHT22;14031;50.158;8.626;2024-01-06T11:32:48;9.60;99.90
16174;DHT22;14031;50.158;8.626;2024-01-06T11:35:15;9.60;99.90
16174;DHT22;14031;50.158;8.626;2024-01-06T11:37:54;9.60;99.90
16174;DHT22;14031;50.158;8.626;2024-01-06T11:40:30;9.70;99.90
16174;DHT22;14031;50.158;8.626;2024-01-06T11:42:59;9.60;99.90
16174;DHT22;14031;50.158;8.626;2024-01-06T11:45:28;9.60;99.90
16174;DHT22;14031;50.158;8.626;2024-01-06T11:47:57;9.40;99.90
16174;DHT22;14031;50.158;8.626;2024-01-06T11:50:24;9.20;99.90
16174;DHT22;14031;50.158;8.626;2024-01-06T11:52:51;9.30;99.90
16174;DHT22;14031;50.158;8.626;2024-01-06T11:55:19;9.30;99.90
16174;DHT22;14031;50.158;8.626;2024-01-06T11:57:46;9.40;99.90
16174;DHT22;14031;50.158;8.626;2024-01-06T12:00:15;9.60;99.90
16174;DHT22;14031;50.158;8.626;2024-01-06T12:02:44;9.50;99.90
16174;DHT22;14031;50.158;8.626;2024-01-06T12:05:14;9.50;99.90
16174;DHT22;14031;50.158;8.626;2024-01-06T12:07:41;9.60;99.90
16174;DHT22;14031;50.158;8.626;2024-01-06T12:10:09;9.60;99.90
16174;DHT22;14031;50.158;8.626;2024-01-06T12:12:37;9.60;99.90
16174;DHT22;14031;50.158;8.626;2024-01-06T12:15:05;9.60;99.90
16174;DHT22;14031;50.158;8.626;2024-01-06T12:17:35;9.70;99.90
16174;DHT22;14031;50.158;8.626;2024-01-06T12:20:04;9.70;99.90
16174;DHT22;14031;50.158;8.626;2024-01-06T12:22:34;9.70;99.90
16174;DHT22;14031;50.158;8.626;2024-01-06T12:25:01;9.70;99.90
16174;DHT22;14031;50.158;8.626;2024-01-06T12:27:30;9.80;99.90
16174;DHT22;14031;50.158;8.626;2024-01-06T12:29:57;9.80;99.90
16174;DHT22;14031;50.158;8.626;2024-01-06T12:32:24;9.80;99.90
16174;DHT22;14031;50.158;8.626;2024-01-06T12:34:51;9.80;99.90
16174;DHT22;14031;50.158;8.626;2024-01-06T12:37:19;9.80;99.90
16174;DHT22;14031;50.158;8.626;2024-01-06T12:39:47;9.70;99.90
16174;DHT22;14031;50.158;8.626;2024-01-06T12:42:15;9.60;99.90
16174;DHT22;14031;50.158;8.626;2024-01-06T12:44:42;9.60;99.90
16174;DHT22;14031;50.158;8.626;2024-01-06T12:47:08;9.60;99.90
16174;DHT22;14031;50.158;8.626;2024-01-06T12:49:37;9.50;99.90
16174;DHT22;14031;50.158;8.626;2024-01-06T12:52:04;9.50;99.90
16174;DHT22;14031;50.158;8.626;2024-01-06T12:54:32;9.50;99.90
16174;DHT22;14031;50.158;8.626;2024-01-06T12:56:59;9.50;99.90
16174;DHT22;14031;50.158;8.626;2024-01-06T12:59:26;9.60;99.90
16174;DHT22;14031;50.158;8.626;2024-01-06T13:01:53;9.60;99.90
16174;DHT22;14031;50.158;8.626;2024-01-06T13:04:20;9.60;99.90
16174;DHT22;14031;50.158;8.626;2024-01-06T13:06:46;9.60;99.90
16174;DHT22;14031;50.158;8.626;2024-01-06T13:09:14;9.50;99.90
16174;DHT22;14031;50.158;8.626;2024-01-06T13:11:43;9.60;99.90
16174;DHT22;14031;50.158;8.626;2024-01-06T13:14:11;9.70;99.90
16174;DHT22;14031;50.158;8.626;2024-01-06T13:16:38;9.70;99.90
16174;DHT22;14031;50.158;8.626;2024-01-06T13:19:05;9.70;99.90
16174;DHT22;14031;50.158;8.626;2024-01-06T13:21:32;9.70;99.90
16174;DHT22;14031;50.158;8.626;2024-01-06T13:23:59;9.60;99.90
16174;DHT22;14031;50.158;8.626;2024-01-06T13:26:28;9.60;99.90
16174;DHT22;14031;50.158;8.626;2024-01-06T13:28:56;9.60;99.90
16174;DHT22;14031;50.158;8.626;2024-01-06T13:31:23;9.60;99.90
16174;DHT22;14031;50.158;8.626;2024-01-06T13:33:50;9.60;99.90
16174;DHT22;14031;50.158;8.626;2024-01-06T13:36:17;9.60;99.90
16174;DHT22;14031;50.158;8.626;2024-01-06T13:38:44;9.60;99.90
16174;DHT22;14031;50.158;8.626;2024-01-06T13:41:11;9.50;99.90
16174;DHT22;14031;50.158;8.626;2024-01-06T13:43:37;9.50;99.90
16174;DHT22;14031;50.158;8.626;2024-01-06T13:46:06;9.50;99.90
16174;DHT22;14031;50.158;8.626;2024-01-06T13:48:32;9.60;99.90
16174;DHT22;14031;50.158;8.626;2024-01-06T13:50:59;9.70;99.90
16174;DHT22;14031;50.158;8.626;2024-01-06T13:53:26;9.60;99.90
16174;DHT22;14031;50.158;8.626;2024-01-06T13:55:53;9.60;99.90
16174;DHT22;14031;50.158;8.626;2024-01-06T13:58:20;9.60;99.90
16174;DHT22;14031;50.158;8.626;2024-01-06T14:00:47;9.60;99.90
16174;DHT22;14031;50.158;8.626;2024-01-06T14:03:15;9.60;99.90
16174;DHT22;14031;50.158;8.626;2024-01-06T14:05:42;9.50;99.90
16174;DHT22;14031;50.158;8.626;2024-01-06T14:08:09;9.40;99.90
16174;DHT22;14031;50.158;8.626;2024-01-06T14:10:35;9.40;99.90
16174;DHT22;14031;50.158;8.626;2024-01-06T14:13:03;9.30;99.90
16174;DHT22;14031;50.158;8.626;2024-01-06T14:15:30;9.40;99.90
16174;DHT22;14031;50.158;8.626;2024-01-06T14:17:58;9.30;99.90
16174;DHT22;14031;50.158;8.626;2024-01-06T14:20:26;9.30;99.90
16174;DHT22;14031;50.158;8.626;2024-01-06T14:22:54;9.20;99.90
16174;DHT22;14031;50.158;8.626;2024-01-06T14:25:21;9.10;99.90
16174;DHT22;14031;50.158;8.626;2024-01-06T14:27:47;8.90;99.90
16174;DHT22;14031;50.158;8.626;2024-01-06T14:30:14;8.90;99.90
16174;DHT22;14031;50.158;8.626;2024-01-06T14:32:41;8.80;99.90
16174;DHT22;14031;50.158;8.626;2024-01-06T14:35:08;8.80;99.90
16174;DHT22;14031;50.158;8.626;2024-01-06T14:37:38;8.70;99.90
16174;DHT22;14031;50.158;8.626;2024-01-06T14:40:06;8.70;99.90
16174;DHT22;14031;50.158;8.626;2024-01-06T14:42:33;8.60;99.90
16174;DHT22;14031;50.158;8.626;2024-01-06T14:45:01;8.60;99.90
16174;DHT22;14031;50.158;8.626;2024-01-06T14:47:28;8.50;99.90
16174;DHT22;14031;50.158;8.626;2024-01-06T14:49:55;8.50;99.90
16174;DHT22;14031;50.158;8.626;2024-01-06T14:52:21;8.50;99.90
16174;DHT22;14031;50.158;8.626;2024-01-06T14:54:49;8.30;99.90
16174;DHT22;14031;50.158;8.626;2024-01-06T14:57:16;8.40;99.90
16174;DHT22;14031;50.158;8.626;2024-01-06T14:59:43;8.30;99.90
16174;DHT22;14031;50.158;8.626;2024-01-06T15:02:10;8.40;99.90
16174;DHT22;14031;50.158;8.626;2024-01-06T15:04:37;8.40;99.90
16174;DHT22;14031;50.158;8.626;2024-01-06T15:07:04;8.30;99.90
16174;DHT22;14031;50.158;8.626;2024-01-06T15:09:31;8.30;99.90
16174;DHT22;14031;50.158;8.626;2024-01-06T15:11:59;8.30;99.90
16174;DHT22;14031;50.158;8.626;2024-01-06T15:14:26;8.30;99.90
16174;DHT22;14031;50.158;8.626;2024-01-06T15:16:53;8.30;99.90
16174;DHT22;14031;50.158;8.626;2024-01-06T15:19:20;8.40;99.90
16174;DHT22;14031;50.158;8.626;2024-01-06T15:21:49;8.30;99.90
16174;DHT22;14031;50.158;8.626;2024-01-06T15:24:16;8.20;99.90
16174;DHT22;14031;50.158;8.626;2024-01-06T15:26:43;8.20;99.90
16174;DHT22;14031;50.158;8.626;2024-01-06T15:29:11;8.20;99.90
16174;DHT22;14031;50.158;8.626;2024-01-06T15:31:38;8.10;99.90
16174;DHT22;14031;50.158;8.626;2024-01-06T15:34:05;8.10;99.90
16174;DHT22;14031;50.158;8.626;2024-01-06T15:36:31;8.20;99.90
16174;DHT22;14031;50.158;8.626;2024-01-06T15:38:59;8.20;99.90
16174;DHT22;14031;50.158;8.626;2024-01-06T15:41:25;8.10;99.90
16174;DHT22;14031;50.158;8.626;2024-01-06T15:43:52;7.90;99.90
16174;DHT22;14031;50.158;8.626;2024-01-06T15:46:20;8.00;99.90